Terminal Aerodrome Forecast
Issued by NWS

Home | Current Version | Previous Version | Text Only | Print | Product List | Glossary On
Versions: 1 2 3 4 5 6 7 8 9 10 11 12 13
000
FTUS46 KMTR 022340
TAFOAK
TAF
KOAK 022340Z 0300/0406 30014KT P6SM FEW015 SCT200
     FM030400 28008KT P6SM SCT015 BKN200
     FM030700 30006KT P6SM OVC015
     FM031830 29007KT P6SM SCT018 BKN200
     FM032000 28012KT P6SM FEW015 BKN200
     FM040400 28006KT P6SM SCT015 BKN200=

USA.gov is the U.S. government's official web portal to all federal, state and local government web resources and services.